Startpagina
METAR-TAF:

METAR-TAF

Vliegvelden :

Malé International Airport

Malé, Maldiven

breedte: 04-12N, lengte: 073-32E, hoogte: 2 m

Actueel weer

Dit bericht is 1 uur en het 13 minuten geleden gemaakt, om 22:00 UTC
Wind 4 kt uit het noordnoordwesten
Temperatuur 28°C
Vochtigheid 79%
Druk 1010 hPa
Zicht: 3000 m
Weinig wolken op 1800 ft
Gebroken wolken op 27000 ft
Heiigheid

METAR: VRMM 102200Z 33004KT 3000 HZ FEW018 BKN270 28/24 Q1010 NOSIG

Tijdstip: 04:13 (23:13 UTC)

Verwachting

Dit bericht is 6 uur en het 13 minuten geleden gemaakt, om 17:00 UTC
Verwachting geldig van 10 om 18 UTC tot 11 om 24 UTC
Wind 8 kt uit het noordnoordoosten
Zicht: 3000 m
Weinig wolken op 1800 ft
Heiigheid
Tijdelijke
van 10 om 19 UTC tot 11 om 01 UTC
Weinig wolken op 1800 ft, Cumulonimbus.

TAF: VRMM 101700Z 1018/1124 02008KT 3000 HZ FEW018 TEMPO 1019/1101 FEW018CB

Waarnemingen en weersverwachtingen van meer dan 4000 vliegvelden (METAR en TAF).

De beschikbare stations zijn de gele en rode punten op de kaart.

Ga met uw muis naar het station om de naam te zien.

Klik dan om waarnemingen en weersverwachtingen te zien.

kaart wijzigen: klik op de groene knoppen met een zwart kruis om in te zoomen, op de groene knop met een streepje om uit te zoomen of op de groene pijlen voor aangrenzende kaarten.


METAR-TAF: